Time;durP1;ratioP1;P1;durP2;ratioP2;P2;SDS_P1;SDS_P2;PMS_P1;PMS_P2;Temp;Humidity;BMP_temperature;BMP_pressure;BME280_temperature;BME280_humidity;BME280_pressure;Samples;Min_cycle;Max_cycle;Signal;HPM_P1;HPM_P2
2022/07/19 00:00:27;;;;;;;7.15;1.98;;;;;;;18.64;66.86;101102.28;4974439;28;20034;-76
2022/07/19 00:02:54;;;;;;;5.78;1.27;;;;;;;18.87;66.34;101110.47;4972836;28;20031;-79
2022/07/19 00:05:20;;;;;;;3.20;1.33;;;;;;;18.64;66.37;101077.03;4974034;28;20038;-79
2022/07/19 00:07:46;;;;;;;3.83;1.23;;;;;;;18.86;66.63;101106.09;4974193;28;20027;-78
2022/07/19 00:10:14;;;;;;;4.82;1.63;;;;;;;18.67;66.38;101073.59;4972986;28;20507;-73
2022/07/19 00:12:40;;;;;;;5.82;1.60;;;;;;;18.78;67.54;101105.09;4973097;28;20062;-73
2022/07/19 00:15:08;;;;;;;3.05;1.50;;;;;;;18.85;67.73;101105.19;4974110;28;20133;-80
2022/07/19 00:17:38;;;;;;;2.90;1.70;;;;;;;18.70;67.76;101082.31;4970546;28;20065;-75
2022/07/19 00:20:04;;;;;;;5.13;1.63;;;;;;;18.77;67.54;101106.84;4969082;28;20027;-76
2022/07/19 00:22:29;;;;;;;2.13;1.38;;;;;;;18.72;67.79;101087.59;4973475;28;20035;-77
2022/07/19 00:24:55;;;;;;;2.25;1.50;;;;;;;18.51;68.75;101077.72;4971740;28;20034;-77
2022/07/19 00:27:21;;;;;;;4.80;1.38;;;;;;;18.33;68.53;101052.19;4973321;28;20027;-77
2022/07/19 00:29:46;;;;;;;6.60;1.77;;;;;;;18.61;68.20;101097.03;4973188;28;20026;-76
2022/07/19 00:32:11;;;;;;;2.90;1.27;;;;;;;18.52;68.78;101092.56;4973036;28;20034;-76
2022/07/19 00:34:37;;;;;;;3.10;1.38;;;;;;;18.52;68.29;101097.78;4973881;28;20054;-76
2022/07/19 00:37:02;;;;;;;4.82;1.60;;;;;;;18.41;68.24;101074.97;4973715;28;20030;-76
2022/07/19 00:39:28;;;;;;;5.55;1.50;;;;;;;18.53;67.90;101089.97;4973450;28;20110;-76
2022/07/19 00:41:53;;;;;;;6.30;1.73;;;;;;;18.59;68.05;101100.50;4973252;28;20133;-75
2022/07/19 00:44:22;;;;;;;4.22;1.77;;;;;;;18.50;69.17;101086.41;4973030;28;20082;-76
2022/07/19 00:46:48;;;;;;;3.92;1.30;;;;;;;18.33;70.42;101088.78;4973129;28;20449;-76
2022/07/19 00:49:13;;;;;;;2.80;1.50;;;;;;;18.12;70.09;101061.47;4973324;28;20486;-75
2022/07/19 00:51:42;;;;;;;4.10;1.83;;;;;;;18.14;69.97;101071.94;4972322;28;20131;-77
2022/07/19 00:54:10;;;;;;;4.78;1.63;;;;;;;18.21;70.06;101081.66;4973134;28;20093;-75
2022/07/19 00:56:37;;;;;;;4.25;1.67;;;;;;;18.30;70.25;101093.97;4973207;28;20031;-76
2022/07/19 00:59:05;;;;;;;2.47;1.60;;;;;;;18.46;69.64;101092.47;4973259;28;20031;-76
2022/07/19 01:01:31;;;;;;;2.20;1.52;;;;;;;18.58;68.35;101075.22;4972788;28;20559;-76
2022/07/19 01:03:57;;;;;;;5.15;2.00;;;;;;;18.58;68.69;101085.66;4973102;28;20062;-76
2022/07/19 01:06:23;;;;;;;4.28;1.65;;;;;;;18.00;69.86;101019.47;4973111;28;20378;-75
2022/07/19 01:08:48;;;;;;;4.47;1.90;;;;;;;18.11;69.81;101044.91;4973122;28;20061;-76
2022/07/19 01:11:14;;;;;;;6.95;1.75;;;;;;;18.57;69.61;101090.88;4972870;28;20030;-76
2022/07/19 01:13:40;;;;;;;3.83;1.77;;;;;;;18.71;69.38;101089.31;4973015;28;20084;-75
2022/07/19 01:16:05;;;;;;;5.10;1.63;;;;;;;18.41;69.50;101082.81;4972755;28;20077;-76
2022/07/19 01:18:31;;;;;;;3.50;1.50;;;;;;;18.21;70.86;101079.03;4972977;28;20382;-76
2022/07/19 01:20:57;;;;;;;4.55;1.90;;;;;;;18.12;70.81;101064.09;4972910;28;20045;-76
2022/07/19 01:23:23;;;;;;;4.05;1.95;;;;;;;18.17;71.50;101074.59;4972961;28;20030;-75
2022/07/19 01:25:49;;;;;;;5.28;1.60;;;;;;;18.23;71.44;101080.81;4972712;28;20456;-76
2022/07/19 01:28:15;;;;;;;4.75;1.60;;;;;;;18.35;70.77;101068.78;4972344;28;20022;-78
2022/07/19 01:30:40;;;;;;;6.00;1.70;;;;;;;18.64;69.10;101081.38;4972498;28;20053;-76
2022/07/19 01:33:06;;;;;;;4.28;1.60;;;;;;;18.57;69.19;101035.97;4972323;28;20417;-77
2022/07/19 01:35:31;;;;;;;4.72;1.70;;;;;;;18.88;68.73;101071.22;4972280;28;20508;-76
2022/07/19 01:37:57;;;;;;;6.85;1.67;;;;;;;18.78;68.81;101073.69;4977121;28;20073;-77
2022/07/19 01:40:24;;;;;;;5.97;1.70;;;;;;;18.68;69.01;101054.38;4972779;28;20453;-76
2022/07/19 01:42:49;;;;;;;5.65;1.98;;;;;;;18.75;69.02;101075.44;4972766;28;20063;-76
2022/07/19 01:45:16;;;;;;;4.18;1.60;;;;;;;18.30;69.61;101012.94;4974832;28;20027;-76
2022/07/19 01:47:42;;;;;;;3.03;1.50;;;;;;;18.55;69.93;101074.28;4971056;28;20470;-75
2022/07/19 01:50:11;;;;;;;3.55;1.60;;;;;;;18.24;71.07;101066.91;4972417;28;20034;-77
2022/07/19 01:52:36;;;;;;;2.30;1.48;;;;;;;18.17;71.21;101058.91;4971871;28;20477;-75
2022/07/19 01:55:03;;;;;;;2.88;1.70;;;;;;;18.01;72.11;101049.97;4974159;28;20035;-76
2022/07/19 01:57:29;;;;;;;5.45;1.83;;;;;;;17.83;72.70;101054.03;4976243;28;20023;-75
2022/07/19 01:59:55;;;;;;;5.68;1.52;;;;;;;17.46;72.84;101002.06;4972177;28;20484;-76
2022/07/19 02:02:20;;;;;;;3.08;1.75;;;;;;;17.22;73.68;100989.47;4971952;28;20025;-76
2022/07/19 02:04:46;;;;;;;4.57;1.77;;;;;;;17.48;74.29;101063.84;4970689;28;20026;-74
2022/07/19 02:07:11;;;;;;;3.47;2.00;;;;;;;17.41;74.94;101062.88;4971911;28;20525;-75
2022/07/19 02:09:37;;;;;;;3.80;1.70;;;;;;;17.57;74.71;101067.50;4971800;28;20129;-75
2022/07/19 02:12:02;;;;;;;6.30;1.60;;;;;;;17.63;73.00;101051.94;4971479;28;20082;-75
2022/07/19 02:14:28;;;;;;;4.40;1.63;;;;;;;17.58;73.58;101044.88;4972054;28;20503;-75
2022/07/19 02:16:53;;;;;;;5.35;1.50;;;;;;;16.72;74.33;100937.19;4971909;28;20420;-74
2022/07/19 02:19:20;;;;;;;2.78;2.13;;;;;;;17.45;74.08;101062.94;4971721;28;20458;-75
2022/07/19 02:21:45;;;;;;;2.70;1.48;;;;;;;17.47;74.84;101055.16;4971563;28;20043;-75
2022/07/19 02:24:11;;;;;;;5.00;2.10;;;;;;;17.60;72.65;101035.34;4971476;28;20045;-75
2022/07/19 02:26:36;;;;;;;2.50;1.50;;;;;;;18.00;71.89;101071.72;4971494;28;20035;-76
2022/07/19 02:29:02;;;;;;;6.05;1.75;;;;;;;18.04;72.85;101061.34;4971490;28;20031;-75
2022/07/19 02:31:28;;;;;;;7.20;2.00;;;;;;;18.13;75.50;101071.09;4970929;28;20030;-76
2022/07/19 02:33:53;;;;;;;10.05;2.35;;;;;;;18.07;75.69;101045.72;4970767;28;20038;-77
2022/07/19 02:36:19;;;;;;;8.43;2.25;;;;;;;18.19;74.90;101062.44;4971019;28;20033;-75
2022/07/19 02:38:45;;;;;;;3.83;2.00;;;;;;;18.31;76.04;101059.16;4970777;28;20049;-74
2022/07/19 02:41:11;;;;;;;3.78;1.63;;;;;;;18.11;76.32;101018.78;4984595;28;20047;-76
2022/07/19 02:43:36;;;;;;;7.35;1.80;;;;;;;18.45;76.67;101072.41;4970822;28;20081;-77
2022/07/19 02:46:02;;;;;;;4.53;1.80;;;;;;;18.27;77.31;101043.41;4969686;28;20428;-76
2022/07/19 02:48:27;;;;;;;3.85;1.80;;;;;;;18.49;77.33;101071.59;4971267;28;20117;-76
2022/07/19 02:50:53;;;;;;;6.28;1.90;;;;;;;18.57;77.04;101072.56;4970937;28;20022;-76
2022/07/19 02:53:18;;;;;;;5.57;2.20;;;;;;;18.67;75.28;101070.97;4971113;28;20467;-76
2022/07/19 02:55:44;;;;;;;7.47;2.15;;;;;;;18.70;74.49;101058.78;4971140;28;20034;-77
2022/07/19 02:58:09;;;;;;;4.38;1.70;;;;;;;18.35;74.61;101012.13;4971113;28;20030;-75
2022/07/19 03:00:35;;;;;;;4.88;1.80;;;;;;;18.54;74.66;101057.72;4969238;28;20034;-76
2022/07/19 03:05:46;;;;;;;5.63;2.05;;;;;;;17.50;74.73;101039.53;4970129;28;20205;-74
2022/07/19 03:08:11;;;;;;;5.25;1.63;;;;;;;16.63;77.47;101022.19;4970960;28;20537;-76
2022/07/19 03:10:37;;;;;;;7.75;1.83;;;;;;;17.19;76.45;101079.84;4970445;28;20101;-73
2022/07/19 03:13:03;;;;;;;5.47;1.80;;;;;;;17.04;76.21;101046.50;4970265;28;20161;-76
2022/07/19 03:15:28;;;;;;;3.25;1.75;;;;;;;17.42;76.26;101078.56;4970331;28;20038;-74
2022/07/19 03:17:54;;;;;;;10.40;2.08;;;;;;;17.53;75.11;101051.75;4970812;28;20173;-77
2022/07/19 03:20:20;;;;;;;6.40;1.88;;;;;;;17.89;73.24;101072.38;4971042;28;20107;-73
2022/07/19 03:22:45;;;;;;;5.57;1.77;;;;;;;17.94;73.31;101064.66;4971019;28;20023;-75
2022/07/19 03:25:10;;;;;;;4.05;1.92;;;;;;;17.80;73.38;101059.19;4970517;28;20093;-78
2022/07/19 03:27:36;;;;;;;7.00;2.30;;;;;;;17.46;74.47;100998.56;4971235;28;20390;-72
2022/07/19 03:30:02;;;;;;;8.55;2.00;;;;;;;17.58;74.05;101018.78;4968435;28;20034;-74
2022/07/19 03:32:28;;;;;;;7.53;2.30;;;;;;;17.67;74.80;101042.44;4970305;28;20042;-74
2022/07/19 03:34:53;;;;;;;4.75;1.60;;;;;;;17.70;76.38;101076.44;4968896;28;20023;-73
2022/07/19 03:37:19;;;;;;;8.35;2.00;;;;;;;17.61;77.56;101071.94;4970542;28;20037;-71
2022/07/19 03:39:44;;;;;;;5.13;2.17;;;;;;;17.66;77.88;101084.16;4970333;28;20050;-73
2022/07/19 03:42:10;;;;;;;2.85;1.63;;;;;;;17.60;78.99;101075.38;4970988;28;20037;-74
2022/07/19 03:44:35;;;;;;;4.13;1.83;;;;;;;17.57;81.14;101087.50;4970785;28;20128;-73
2022/07/19 03:47:01;;;;;;;3.60;1.83;;;;;;;16.77;81.15;100925.13;4971127;28;20401;-74
2022/07/19 03:49:26;;;;;;;8.05;2.13;;;;;;;17.70;80.62;101050.31;4970123;28;20429;-74
2022/07/19 03:51:52;;;;;;;3.33;1.50;;;;;;;17.94;80.51;101070.78;4967188;28;20035;-73
2022/07/19 03:54:18;;;;;;;5.60;1.95;;;;;;;18.12;80.22;101066.69;4969785;28;20114;-72
2022/07/19 03:56:43;;;;;;;10.45;2.05;;;;;;;18.14;79.44;101074.56;4970207;28;20409;-74
2022/07/19 03:59:09;;;;;;;6.68;1.98;;;;;;;18.24;78.58;101079.06;4973119;28;20023;-74
2022/07/19 04:01:35;;;;;;;5.75;1.85;;;;;;;18.34;78.57;101082.69;4973799;28;20027;-74
2022/07/19 04:04:00;;;;;;;6.93;2.38;;;;;;;18.36;79.88;101091.44;4973942;28;20027;-75
2022/07/19 04:06:25;;;;;;;4.35;1.95;;;;;;;18.36;79.60;101076.63;4974577;28;20110;-77
2022/07/19 04:08:51;;;;;;;6.32;1.83;;;;;;;18.43;79.05;101070.63;4973755;28;20070;-79
2022/07/19 04:11:16;;;;;;;3.92;1.70;;;;;;;18.20;78.40;101018.03;4973821;28;20023;-78
2022/07/19 04:13:42;;;;;;;8.68;2.10;;;;;;;18.65;77.84;101070.06;4973224;28;20062;-75
2022/07/19 04:16:07;;;;;;;6.50;2.28;;;;;;;18.81;77.89;101094.69;4973556;28;20109;-74
2022/07/19 04:18:33;;;;;;;7.90;2.50;;;;;;;18.83;77.86;101091.22;4974364;28;20035;-76
2022/07/19 04:20:58;;;;;;;7.90;2.03;;;;;;;18.78;77.74;101066.75;4973781;28;20026;-77
2022/07/19 04:23:24;;;;;;;3.92;1.95;;;;;;;19.04;76.91;101098.50;4972514;28;20027;-76
2022/07/19 04:25:49;;;;;;;10.95;2.80;;;;;;;19.00;76.58;101080.13;4974247;28;20026;-76
2022/07/19 04:28:15;;;;;;;10.63;2.22;;;;;;;19.07;76.89;101081.97;4973696;28;20030;-76
2022/07/19 04:30:40;;;;;;;11.10;2.30;;;;;;;19.04;76.43;101071.44;4974150;28;20031;-76
2022/07/19 04:33:06;;;;;;;15.57;2.65;;;;;;;19.02;75.50;101081.03;4974013;28;20105;-76
2022/07/19 04:35:31;;;;;;;6.20;2.45;;;;;;;19.12;76.11;101095.09;4974042;28;20026;-76
2022/07/19 04:37:57;;;;;;;6.55;2.22;;;;;;;19.04;76.89;101098.50;4973156;28;20043;-76
2022/07/19 04:40:22;;;;;;;12.70;2.95;;;;;;;18.78;77.56;101056.28;4973925;28;20023;-77
2022/07/19 04:42:48;;;;;;;8.02;2.25;;;;;;;19.08;75.91;101096.81;4973878;28;20090;-77
2022/07/19 04:45:13;;;;;;;8.07;2.83;;;;;;;19.15;75.24;101098.63;4973747;28;20034;-76
2022/07/19 04:47:38;;;;;;;8.50;2.45;;;;;;;18.83;75.19;101052.00;4973679;28;20027;-77
2022/07/19 04:50:05;;;;;;;6.47;2.13;;;;;;;18.87;74.66;101050.28;4973839;28;20117;-76
2022/07/19 04:52:30;;;;;;;11.05;2.35;;;;;;;19.12;73.91;101079.41;4966312;28;20110;-75
2022/07/19 04:54:56;;;;;;;8.70;2.58;;;;;;;19.34;73.29;101090.97;4973424;28;20161;-76
2022/07/19 04:57:21;;;;;;;10.77;2.40;;;;;;;19.36;72.67;101087.50;4973325;28;20114;-76
2022/07/19 04:59:46;;;;;;;7.70;2.00;;;;;;;19.30;72.36;101065.63;4973018;28;20030;-75
2022/07/19 05:02:12;;;;;;;5.25;2.05;;;;;;;19.48;71.47;101081.53;4973079;28;20019;-68
2022/07/19 05:04:37;;;;;;;10.60;2.60;;;;;;;19.48;71.43;101089.38;4973080;28;20086;-72
2022/07/19 05:07:03;;;;;;;5.22;1.98;;;;;;;19.20;72.51;101088.19;4972790;28;20015;-73
2022/07/19 05:09:29;;;;;;;6.80;2.20;;;;;;;19.31;72.96;101080.47;4971216;28;20049;-72
2022/07/19 05:11:55;;;;;;;6.43;2.47;;;;;;;19.11;73.09;101083.75;4972583;28;20512;-72
2022/07/19 05:14:21;;;;;;;4.28;2.10;;;;;;;19.13;73.58;101076.78;4972068;28;20369;-74
2022/07/19 05:16:49;;;;;;;4.88;2.28;;;;;;;18.94;73.23;101032.94;4972323;28;20030;-73
2022/07/19 05:19:15;;;;;;;11.65;2.85;;;;;;;19.37;72.73;101096.25;4972158;28;20413;-73
2022/07/19 05:21:41;;;;;;;5.97;2.42;;;;;;;19.47;72.95;101082.38;4971921;28;20030;-71
2022/07/19 05:24:07;;;;;;;5.75;2.40;;;;;;;19.29;74.06;101083.09;4971931;28;20038;-75
2022/07/19 05:26:33;;;;;;;10.20;2.90;;;;;;;19.36;73.12;101086.63;4972042;28;20072;-76
2022/07/19 05:28:59;;;;;;;8.90;2.85;;;;;;;19.50;72.70;101071.94;4972072;28;20042;-73
2022/07/19 05:31:25;;;;;;;6.07;2.55;;;;;;;19.63;71.92;101072.94;4972204;28;20110;-74
2022/07/19 05:33:51;;;;;;;8.48;3.53;;;;;;;19.87;71.62;101098.50;4971963;28;20116;-75
2022/07/19 05:36:16;;;;;;;10.13;3.10;;;;;;;19.24;71.05;100957.38;4972376;28;20050;-75
2022/07/19 05:38:41;;;;;;;9.02;3.05;;;;;;;19.76;70.69;101031.13;4972026;28;20027;-75
2022/07/19 05:41:08;;;;;;;5.35;2.85;;;;;;;19.82;70.40;101031.19;4970908;28;20033;-73
2022/07/19 05:43:35;;;;;;;10.73;2.92;;;;;;;20.29;70.30;101098.84;4972044;28;20039;-75
2022/07/19 05:46:01;;;;;;;6.40;3.47;;;;;;;20.42;69.87;101091.03;4972024;28;20030;-74
2022/07/19 05:48:26;;;;;;;13.35;3.78;;;;;;;20.11;68.95;101028.81;4972175;28;20030;-74
2022/07/19 05:50:52;;;;;;;5.38;2.85;;;;;;;20.29;69.14;101056.88;4970576;28;20027;-75
2022/07/19 05:53:18;;;;;;;6.10;2.70;;;;;;;20.50;69.78;101089.34;4971830;28;20030;-73
2022/07/19 05:55:44;;;;;;;11.23;2.47;;;;;;;20.19;69.99;101041.97;4971740;28;20113;-76
2022/07/19 05:58:09;;;;;;;4.10;2.35;;;;;;;20.56;70.47;101094.63;4971648;28;20097;-75
2022/07/19 06:00:35;;;;;;;5.35;2.40;;;;;;;20.42;70.45;101088.44;4971530;28;20031;-75
2022/07/19 06:03:00;;;;;;;5.78;2.22;;;;;;;20.46;70.79;101101.56;4971474;28;20030;-75
2022/07/19 06:05:26;;;;;;;4.63;2.00;;;;;;;20.55;70.53;101090.25;4967027;28;20038;-73
2022/07/19 06:07:51;;;;;;;3.38;2.13;;;;;;;20.76;69.74;101096.50;4971350;28;20534;-75
2022/07/19 06:10:17;;;;;;;7.07;2.03;;;;;;;20.81;69.66;101077.31;4970461;28;20018;-77
2022/07/19 06:12:42;;;;;;;7.45;2.28;;;;;;;21.08;69.37;101099.25;4971547;28;20027;-74
2022/07/19 06:15:09;;;;;;;5.70;2.63;;;;;;;20.78;69.30;101073.78;4972619;28;20029;-74
2022/07/19 06:17:34;;;;;;;9.77;2.75;;;;;;;21.07;69.21;101108.03;4974144;28;20031;-74
2022/07/19 06:19:59;;;;;;;6.30;2.50;;;;;;;21.12;69.29;101090.53;4973819;28;20541;-76
2022/07/19 06:22:30;;;;;;;3.75;1.98;;;;;;;21.28;68.29;101093.22;4970815;28;20474;-74
2022/07/19 06:24:55;;;;;;;4.88;2.13;;;;;;;21.44;66.63;101088.88;4971000;28;20485;-77
2022/07/19 06:27:21;;;;;;;4.80;2.00;;;;;;;21.52;66.00;101079.25;4971124;28;20023;-75
2022/07/19 06:29:46;;;;;;;5.28;1.85;;;;;;;21.64;65.28;101084.53;4971360;28;20387;-73
2022/07/19 06:32:11;;;;;;;2.90;1.75;;;;;;;21.75;64.75;101073.19;4971470;28;20034;-74
2022/07/19 06:34:37;;;;;;;8.75;2.53;;;;;;;21.43;63.08;101064.38;4969009;28;20043;-75
2022/07/19 06:37:02;;;;;;;3.38;1.75;;;;;;;21.39;62.28;101054.72;4971022;28;20109;-74
2022/07/19 06:39:28;;;;;;;5.32;1.70;;;;;;;21.72;63.39;101089.81;4971262;28;20101;-74
2022/07/19 06:41:53;;;;;;;5.88;1.90;;;;;;;21.72;61.25;101055.66;4970895;28;20026;-74
2022/07/19 06:44:19;;;;;;;6.72;2.00;;;;;;;21.85;61.15;101058.28;4971134;28;20030;-74
2022/07/19 06:46:44;;;;;;;6.03;1.80;;;;;;;21.90;61.61;101062.66;4970411;28;20031;-73
2022/07/19 06:49:10;;;;;;;4.00;1.65;;;;;;;22.03;61.27;101076.69;4971050;28;20031;-76
2022/07/19 06:51:35;;;;;;;7.45;2.15;;;;;;;21.97;60.30;101034.63;4970794;28;20038;-75
2022/07/19 06:54:00;;;;;;;4.63;1.73;;;;;;;22.33;58.97;101082.78;4970734;28;20019;-75
2022/07/19 06:56:26;;;;;;;4.65;1.80;;;;;;;22.37;57.78;101088.88;4970748;28;20038;-74
2022/07/19 06:58:51;;;;;;;6.57;1.80;;;;;;;22.49;59.92;101073.09;4971149;28;20402;-76
2022/07/19 07:01:19;;;;;;;5.30;1.80;;;;;;;22.40;55.60;101041.56;4970853;28;20035;-76
2022/07/19 07:03:45;;;;;;;3.10;1.60;;;;;;;22.74;54.91;101071.28;4970563;28;20508;-74
2022/07/19 07:06:10;;;;;;;3.10;1.60;;;;;;;22.88;53.22;101076.50;4970473;28;20489;-76
2022/07/19 07:08:36;;;;;;;6.20;1.73;;;;;;;23.01;52.26;101081.69;4936139;28;20057;-74
2022/07/19 07:11:01;;;;;;;5.75;2.60;;;;;;;22.86;52.14;101058.94;4971021;28;20404;-76
2022/07/19 07:13:27;;;;;;;10.23;2.38;;;;;;;22.68;53.60;101023.94;4970415;28;20027;-73
2022/07/19 07:15:52;;;;;;;9.50;2.50;;;;;;;23.01;50.88;101061.50;4970622;28;20041;-75
2022/07/19 07:18:18;;;;;;;7.72;2.10;;;;;;;23.23;52.00;101053.53;4971134;28;20027;-75
2022/07/19 07:20:44;;;;;;;7.45;1.75;;;;;;;23.39;52.44;101065.72;4970726;28;20026;-77
2022/07/19 07:23:09;;;;;;;5.80;1.63;;;;;;;23.36;51.60;101059.56;4970457;28;20026;-76
2022/07/19 07:25:35;;;;;;;6.15;1.90;;;;;;;23.45;48.67;101067.41;4970557;28;20482;-76
2022/07/19 07:28:00;;;;;;;18.88;3.85;;;;;;;23.60;48.09;101063.78;4970662;28;20110;-76
2022/07/19 07:30:26;;;;;;;28.58;4.38;;;;;;;23.75;49.11;101060.16;4970392;28;20035;-76
2022/07/19 07:32:51;;;;;;;12.95;3.00;;;;;;;23.87;45.36;101046.00;4972025;28;20033;-73
2022/07/19 07:35:17;;;;;;;8.52;2.38;;;;;;;23.92;45.82;101062.69;4975128;28;20461;-73
2022/07/19 07:37:42;;;;;;;8.82;2.20;;;;;;;23.97;49.96;101054.75;4974816;28;20536;-74
2022/07/19 07:40:08;;;;;;;8.73;2.55;;;;;;;23.89;49.57;101042.47;4974316;28;20472;-75
2022/07/19 07:42:34;;;;;;;11.70;2.45;;;;;;;24.00;47.59;101047.69;4974250;28;20422;-75
2022/07/19 07:45:00;;;;;;;17.63;3.45;;;;;;;24.28;45.10;101049.16;4973906;28;20103;-72
2022/07/19 07:47:26;;;;;;;18.13;2.63;;;;;;;23.92;42.39;100966.91;4974158;28;20058;-74
2022/07/19 07:49:51;;;;;;;15.45;2.80;;;;;;;24.52;44.35;101059.44;4972796;28;20030;-76
2022/07/19 07:52:17;;;;;;;6.70;1.73;;;;;;;24.60;46.96;101056.72;4974415;28;20019;-73
2022/07/19 07:54:42;;;;;;;6.32;1.67;;;;;;;24.62;44.48;101046.13;4974024;28;21620;-77
2022/07/19 07:57:08;;;;;;;6.15;1.83;;;;;;;24.33;42.68;100984.88;4974078;28;20027;-73
2022/07/19 07:59:34;;;;;;;9.73;2.30;;;;;;;24.80;42.76;101045.03;4974325;28;20066;-74
2022/07/19 08:02:00;;;;;;;5.88;1.50;;;;;;;24.95;40.61;101042.22;4973194;28;20050;-74
2022/07/19 08:04:26;;;;;;;10.32;2.20;;;;;;;24.85;43.42;100987.78;4973892;28;20482;-77
2022/07/19 08:06:51;;;;;;;5.50;1.60;;;;;;;25.19;43.04;101016.34;4974360;28;20026;-75
2022/07/19 08:09:17;;;;;;;6.55;1.70;;;;;;;25.41;42.38;101027.50;4974408;28;20045;-75
2022/07/19 08:11:42;;;;;;;8.38;1.73;;;;;;;25.28;41.70;101016.19;4973677;28;20033;-73
2022/07/19 08:14:08;;;;;;;6.40;1.52;;;;;;;25.38;40.03;101029.31;4974544;28;20378;-78
2022/07/19 08:16:33;;;;;;;11.50;2.20;;;;;;;25.54;39.61;101040.50;4974476;28;20023;-77
2022/07/19 08:18:59;;;;;;;10.10;1.85;;;;;;;25.62;40.63;101039.50;4973950;28;20488;-75
2022/07/19 08:21:24;;;;;;;4.47;1.60;;;;;;;25.64;37.75;101019.16;4974069;28;20447;-74
2022/07/19 08:23:51;;;;;;;3.05;1.23;;;;;;;25.64;39.40;101027.09;4974001;28;20561;-78
2022/07/19 08:26:16;;;;;;;3.83;1.27;;;;;;;25.61;37.71;101018.34;4973628;28;20105;-74
2022/07/19 08:28:42;;;;;;;8.85;1.70;;;;;;;25.62;37.22;101002.47;4974141;28;20177;-75
2022/07/19 08:31:08;;;;;;;9.07;1.63;;;;;;;25.53;37.36;100999.97;4973977;28;20529;-74
2022/07/19 08:33:34;;;;;;;4.88;1.52;;;;;;;25.82;37.98;101020.63;4973312;28;20489;-76
2022/07/19 08:35:59;;;;;;;4.88;1.48;;;;;;;25.90;35.28;101023.13;4973471;28;20031;-74
2022/07/19 08:38:24;;;;;;;1.45;1.20;;;;;;;26.10;35.13;101021.94;4973880;28;20500;-74
2022/07/19 08:40:52;;;;;;;1.33;1.20;;;;;;;26.26;36.62;101026.00;4973428;28;20034;-74
2022/07/19 08:43:18;;;;;;;7.30;1.45;;;;;;;26.38;34.97;101013.44;4973664;28;20049;-76
2022/07/19 08:45:43;;;;;;;8.48;1.58;;;;;;;26.54;36.14;101008.72;4972225;28;20477;-77
2022/07/19 08:48:09;;;;;;;5.00;1.30;;;;;;;26.22;34.26;100939.66;4973439;28;20037;-71
2022/07/19 08:50:35;;;;;;;5.25;1.70;;;;;;;26.62;34.37;101012.94;4972648;28;20031;-72
2022/07/19 08:53:01;;;;;;;5.00;1.45;;;;;;;26.63;37.58;101004.09;4972663;28;20038;-74
2022/07/19 08:55:27;;;;;;;4.40;1.10;;;;;;;26.80;33.42;101005.53;4972722;28;20022;-74
2022/07/19 08:58:02;;;;;;;15.68;2.30;;;;;;;26.90;32.55;100991.16;4972719;28;20078;-73
2022/07/19 09:00:30;;;;;;;6.30;1.40;;;;;;;26.84;32.44;100956.00;4972647;28;20027;-74
2022/07/19 09:03:00;;;;;;;6.32;1.50;;;;;;;27.24;32.27;101006.28;4972760;28;20465;-72
2022/07/19 09:05:26;;;;;;;6.50;1.38;;;;;;;27.34;32.42;100990.13;4972659;28;20026;-72
2022/07/19 09:08:11;;;;;;;4.57;1.30;;;;;;;27.31;32.42;101006.13;4972527;28;20030;-72
2022/07/19 09:10:40;;;;;;;6.45;1.40;;;;;;;27.35;31.97;100989.25;4971855;28;20066;-74
2022/07/19 09:13:14;;;;;;;8.30;1.40;;;;;;;27.59;31.08;100986.00;4972087;28;20513;-73
2022/07/19 09:15:56;;;;;;;11.75;1.75;;;;;;;27.82;31.28;101000.44;4970452;28;20026;-74
2022/07/19 09:18:28;;;;;;;2.33;1.05;;;;;;;27.70;31.24;100998.09;4972369;28;20485;-75
2022/07/19 09:21:02;;;;;;;4.63;1.38;;;;;;;27.79;31.31;100999.66;4972397;28;20018;-76
2022/07/19 09:23:28;;;;;;;5.63;1.30;;;;;;;27.87;31.46;100976.44;4971901;28;20035;-75
2022/07/19 09:26:00;;;;;;;3.40;1.52;;;;;;;27.98;32.48;100994.75;4971979;28;20035;-76
2022/07/19 09:28:45;;;;;;;2.55;1.30;;;;;;;27.99;31.64;100992.03;4950320;29;20039;-76
2022/07/19 09:31:11;;;;;;;5.97;1.38;;;;;;;27.82;31.79;100952.69;4950319;29;20058;-76
2022/07/19 09:33:36;;;;;;;18.55;3.10;;;;;;;28.23;30.45;100994.94;4950218;29;20058;-72
2022/07/19 09:36:13;;;;;;;4.38;1.50;;;;;;;28.34;32.36;100992.00;4950639;29;20050;-72
2022/07/19 09:38:42;;;;;;;6.82;2.42;;;;;;;28.51;30.15;100986.16;4950695;29;20028;-72
2022/07/19 09:41:18;;;;;;;2.83;1.60;;;;;;;28.58;29.72;100977.09;4950785;29;20055;-72
2022/07/19 09:43:52;;;;;;;4.38;1.20;;;;;;;28.52;29.69;100979.94;4950585;29;20752;-72
2022/07/19 09:46:27;;;;;;;5.47;1.50;;;;;;;28.58;30.37;100985.06;4950375;29;20039;-72
2022/07/19 09:48:52;;;;;;;4.40;1.27;;;;;;;28.71;30.04;100969.66;4950526;29;20542;-73
2022/07/19 09:51:20;;;;;;;4.95;1.00;;;;;;;28.61;30.12;100968.16;4950616;28;20032;-74
2022/07/19 09:53:46;;;;;;;3.30;1.48;;;;;;;28.66;30.51;100979.53;4950744;29;20051;-74
2022/07/19 09:56:12;;;;;;;8.20;1.42;;;;;;;28.80;30.94;100965.84;4949865;28;20098;-74
2022/07/19 09:58:41;;;;;;;1.42;1.00;;;;;;;28.78;31.71;100949.09;4950118;28;20158;-74
2022/07/19 10:01:06;;;;;;;6.82;1.95;;;;;;;28.67;31.13;100920.16;4949602;28;20035;-73
2022/07/19 10:03:32;;;;;;;24.52;2.83;;;;;;;29.02;27.98;100958.06;4949961;28;20457;-73
2022/07/19 10:05:58;;;;;;;9.02;1.50;;;;;;;29.24;28.39;100947.59;4958843;28;20062;-74
2022/07/19 10:08:24;;;;;;;4.68;1.20;;;;;;;29.43;28.82;100937.22;4972022;28;20422;-74
2022/07/19 10:10:49;;;;;;;30.65;5.20;;;;;;;29.40;28.65;100900.09;4971409;28;20050;-73
2022/07/19 10:13:16;;;;;;;10.73;2.90;;;;;;;29.67;29.74;100918.66;4971372;28;20047;-74
2022/07/19 10:15:45;;;;;;;21.60;3.65;;;;;;;30.08;28.34;100952.72;4970156;28;20512;-73
2022/07/19 10:18:14;;;;;;;23.48;4.43;;;;;;;30.22;27.01;100957.50;4970255;28;20030;-76
2022/07/19 10:20:43;;;;;;;12.75;2.33;;;;;;;30.36;26.72;100955.22;4970737;28;20043;-76
2022/07/19 10:23:09;;;;;;;;;;;;;;;30.42;27.02;100946.97;4972621;28;20027;-74
2022/07/19 10:25:45;;;;;;;12.57;2.40;;;;;;;30.58;26.32;100939.28;4971276;28;19925;-74
2022/07/19 10:28:32;;;;;;;12.75;2.40;;;;;;;30.81;28.69;100940.16;4971212;28;20652;-74
2022/07/19 10:30:58;;;;;;;11.38;2.50;;;;;;;30.60;26.79;100925.91;4970193;28;20027;-72
2022/07/19 10:33:36;;;;;;;4.43;1.30;;;;;;;30.60;27.47;100941.88;4971676;28;20046;-73
2022/07/19 10:36:39;;;;;;;3.15;1.30;;;;;;;30.70;26.54;100932.59;4972369;28;20079;-73
2022/07/19 10:39:38;;;;;;;4.75;1.52;;;;;;;30.86;26.08;100926.66;4972230;28;20093;-74
2022/07/19 10:42:20;;;;;;;;;;;;;;;31.00;26.71;100918.09;4969582;28;20029;-75
2022/07/19 10:44:55;;;;;;;7.00;1.38;;;;;;;31.17;26.27;100918.28;4970314;28;19925;-74
2022/07/19 10:47:34;;;;;;;7.38;1.60;;;;;;;31.29;25.74;100919.53;4970959;28;20033;-73
2022/07/19 10:50:02;;;;;;;7.35;1.30;;;;;;;31.03;27.57;100902.84;4971088;28;20027;-74
2022/07/19 10:52:27;;;;;;;4.72;1.25;;;;;;;31.16;26.50;100923.69;4971242;28;20031;-74
2022/07/19 10:55:27;;;;;;;1.65;0.90;;;;;;;31.35;24.61;100913.09;4970946;28;20030;-72
2022/07/19 10:57:58;;;;;;;7.47;1.80;;;;;;;31.24;24.91;100868.19;4929817;29;20115;-73
2022/07/19 11:00:29;;;;;;;8.30;1.40;;;;;;;31.61;24.67;100909.28;4927804;29;20542;-72
2022/07/19 11:03:23;;;;;;;6.32;1.38;;;;;;;31.81;24.40;100910.22;4929733;29;20079;-73
2022/07/19 11:05:59;;;;;;;3.10;1.20;;;;;;;31.67;26.11;100895.69;4929809;29;20063;-72
2022/07/19 11:08:54;;;;;;;3.45;1.30;;;;;;;31.69;25.92;100899.16;4928026;29;20043;-74
2022/07/19 11:11:20;;;;;;;6.20;1.83;;;;;;;31.81;26.81;100903.06;4926601;29;20044;-73
2022/07/19 11:13:59;;;;;;;1.23;0.90;;;;;;;31.58;24.34;100864.06;4929263;29;20062;-74
2022/07/19 11:16:26;;;;;;;3.20;1.20;;;;;;;31.88;24.82;100898.34;4914259;29;20079;-73
2022/07/19 11:19:01;;;;;;;2.03;1.15;;;;;;;31.93;23.74;100886.50;4929848;29;20203;-73
2022/07/19 11:21:32;;;;;;;2.65;1.20;;;;;;;32.00;24.20;100873.75;4926932;29;20040;-72
2022/07/19 11:23:58;;;;;;;2.08;1.17;;;;;;;32.32;24.94;100883.88;4929296;29;20048;-73
2022/07/19 11:26:23;;;;;;;27.70;4.35;;;;;;;32.16;23.95;100835.59;4929834;29;20032;-72